Terminal Aerodrome Forecast
Issued by NWS Louisville, KY

Home | Current Version | Previous Version | Text Only | Print | Product List | Glossary On
Versions: 1 2 3 4 5 6 7 8 9 10 11 12 13 14 15 16 17 18 19 20 21 22 23 24 25 26 27 28 29 30 31
000
FTUS43 KLMK 022300
TAFSDF
TAF
KSDF 022320Z 0300/0406 03005KT P6SM BKN250
     FM030900 08004KT P6SM BKN025
     FM031100 12004KT 4SM -RA BR BKN015
     FM031700 20012KT 3SM -RA BKN008
     FM040000 22010KT 3SM -RA BKN005=

USA.gov is the U.S. government's official web portal to all federal, state and local government web resources and services.